sensor_id;sensor_type;location;lat;lon;timestamp;P1;durP1;ratioP1;P2;durP2;ratioP2
57047;SDS011;42934;54.294;18.598;2022-09-20T00:01:46;5.43;;;1.98;;
57047;SDS011;42934;54.294;18.598;2022-09-20T00:04:15;3.10;;;1.70;;
57047;SDS011;42934;54.294;18.598;2022-09-20T00:06:44;2.70;;;1.73;;
57047;SDS011;42934;54.294;18.598;2022-09-20T00:09:13;2.72;;;1.50;;
57047;SDS011;42934;54.294;18.598;2022-09-20T00:11:44;3.10;;;1.80;;
57047;SDS011;42934;54.294;18.598;2022-09-20T00:14:13;3.25;;;1.83;;
57047;SDS011;42934;54.294;18.598;2022-09-20T00:16:42;4.25;;;1.90;;
57047;SDS011;42934;54.294;18.598;2022-09-20T00:19:14;2.78;;;1.58;;
57047;SDS011;42934;54.294;18.598;2022-09-20T00:21:46;3.40;;;2.25;;
57047;SDS011;42934;54.294;18.598;2022-09-20T00:24:16;4.53;;;1.95;;
57047;SDS011;42934;54.294;18.598;2022-09-20T00:26:47;2.00;;;1.42;;
57047;SDS011;42934;54.294;18.598;2022-09-20T00:29:17;2.13;;;1.25;;
57047;SDS011;42934;54.294;18.598;2022-09-20T00:31:46;2.88;;;1.50;;
57047;SDS011;42934;54.294;18.598;2022-09-20T00:34:15;2.47;;;1.52;;
57047;SDS011;42934;54.294;18.598;2022-09-20T00:37:02;2.95;;;1.40;;
57047;SDS011;42934;54.294;18.598;2022-09-20T00:39:31;2.70;;;1.60;;
57047;SDS011;42934;54.294;18.598;2022-09-20T00:42:03;3.10;;;1.80;;
57047;SDS011;42934;54.294;18.598;2022-09-20T00:44:39;3.33;;;1.60;;
57047;SDS011;42934;54.294;18.598;2022-09-20T00:47:18;3.78;;;1.60;;
57047;SDS011;42934;54.294;18.598;2022-09-20T00:49:54;2.15;;;1.40;;
57047;SDS011;42934;54.294;18.598;2022-09-20T00:52:26;3.95;;;1.85;;
57047;SDS011;42934;54.294;18.598;2022-09-20T00:54:57;3.28;;;1.50;;
57047;SDS011;42934;54.294;18.598;2022-09-20T00:57:29;2.75;;;1.50;;
57047;SDS011;42934;54.294;18.598;2022-09-20T01:00:02;5.30;;;1.73;;
57047;SDS011;42934;54.294;18.598;2022-09-20T01:02:34;2.72;;;1.70;;
57047;SDS011;42934;54.294;18.598;2022-09-20T01:05:08;2.80;;;1.67;;
57047;SDS011;42934;54.294;18.598;2022-09-20T01:07:39;2.70;;;1.60;;
57047;SDS011;42934;54.294;18.598;2022-09-20T01:10:11;2.55;;;1.63;;
57047;SDS011;42934;54.294;18.598;2022-09-20T01:12:41;2.97;;;1.50;;
57047;SDS011;42934;54.294;18.598;2022-09-20T01:15:12;3.15;;;1.67;;
57047;SDS011;42934;54.294;18.598;2022-09-20T01:20:15;2.55;;;1.60;;
57047;SDS011;42934;54.294;18.598;2022-09-20T01:23:00;3.13;;;1.77;;
57047;SDS011;42934;54.294;18.598;2022-09-20T01:29:00;5.30;;;1.20;;
57047;SDS011;42934;54.294;18.598;2022-09-20T01:31:39;1.73;;;1.30;;
57047;SDS011;42934;54.294;18.598;2022-09-20T01:34:13;2.17;;;1.25;;
57047;SDS011;42934;54.294;18.598;2022-09-20T01:36:46;2.28;;;1.25;;
57047;SDS011;42934;54.294;18.598;2022-09-20T01:39:22;2.72;;;1.40;;
57047;SDS011;42934;54.294;18.598;2022-09-20T01:42:08;2.05;;;1.13;;
57047;SDS011;42934;54.294;18.598;2022-09-20T01:44:43;2.50;;;1.20;;
57047;SDS011;42934;54.294;18.598;2022-09-20T01:47:23;2.55;;;1.40;;
57047;SDS011;42934;54.294;18.598;2022-09-20T01:50:02;2.42;;;1.40;;
57047;SDS011;42934;54.294;18.598;2022-09-20T01:56:12;2.63;;;1.40;;
57047;SDS011;42934;54.294;18.598;2022-09-20T01:59:29;3.08;;;1.40;;
57047;SDS011;42934;54.294;18.598;2022-09-20T02:11:16;3.10;;;1.10;;
57047;SDS011;42934;54.294;18.598;2022-09-20T02:13:57;1.75;;;1.05;;
57047;SDS011;42934;54.294;18.598;2022-09-20T02:16:42;3.95;;;1.33;;
57047;SDS011;42934;54.294;18.598;2022-09-20T02:19:26;3.15;;;1.50;;
57047;SDS011;42934;54.294;18.598;2022-09-20T02:22:20;3.42;;;1.30;;
57047;SDS011;42934;54.294;18.598;2022-09-20T02:25:01;2.13;;;1.15;;
57047;SDS011;42934;54.294;18.598;2022-09-20T02:27:40;2.08;;;1.13;;
57047;SDS011;42934;54.294;18.598;2022-09-20T02:30:22;1.63;;;1.20;;
57047;SDS011;42934;54.294;18.598;2022-09-20T02:33:09;3.27;;;1.17;;
57047;SDS011;42934;54.294;18.598;2022-09-20T02:36:03;2.17;;;1.08;;
57047;SDS011;42934;54.294;18.598;2022-09-20T02:38:49;1.23;;;1.00;;
57047;SDS011;42934;54.294;18.598;2022-09-20T02:41:40;3.50;;;1.33;;
57047;SDS011;42934;54.294;18.598;2022-09-20T02:47:24;2.28;;;1.15;;
57047;SDS011;42934;54.294;18.598;2022-09-20T02:50:07;2.13;;;1.02;;
57047;SDS011;42934;54.294;18.598;2022-09-20T02:52:50;2.25;;;1.13;;
57047;SDS011;42934;54.294;18.598;2022-09-20T02:55:34;1.63;;;1.00;;
57047;SDS011;42934;54.294;18.598;2022-09-20T02:58:14;1.90;;;1.10;;
57047;SDS011;42934;54.294;18.598;2022-09-20T03:01:00;1.10;;;0.95;;
57047;SDS011;42934;54.294;18.598;2022-09-20T03:03:39;1.40;;;1.00;;
57047;SDS011;42934;54.294;18.598;2022-09-20T03:06:22;1.65;;;1.17;;
57047;SDS011;42934;54.294;18.598;2022-09-20T03:09:01;2.35;;;0.93;;
57047;SDS011;42934;54.294;18.598;2022-09-20T03:11:42;1.13;;;0.90;;
57047;SDS011;42934;54.294;18.598;2022-09-20T03:14:23;1.42;;;1.00;;
57047;SDS011;42934;54.294;18.598;2022-09-20T03:17:03;2.42;;;1.10;;
57047;SDS011;42934;54.294;18.598;2022-09-20T03:19:59;2.58;;;1.15;;
57047;SDS011;42934;54.294;18.598;2022-09-20T03:22:47;1.90;;;1.10;;
57047;SDS011;42934;54.294;18.598;2022-09-20T03:28:21;3.40;;;1.10;;
57047;SDS011;42934;54.294;18.598;2022-09-20T03:31:04;1.83;;;0.80;;
57047;SDS011;42934;54.294;18.598;2022-09-20T03:33:43;1.30;;;1.00;;
57047;SDS011;42934;54.294;18.598;2022-09-20T03:36:32;2.00;;;1.00;;
57047;SDS011;42934;54.294;18.598;2022-09-20T03:39:39;2.42;;;1.20;;
57047;SDS011;42934;54.294;18.598;2022-09-20T03:42:38;2.83;;;1.10;;
57047;SDS011;42934;54.294;18.598;2022-09-20T03:45:18;2.03;;;1.00;;
57047;SDS011;42934;54.294;18.598;2022-09-20T03:51:31;1.60;;;1.00;;
57047;SDS011;42934;54.294;18.598;2022-09-20T03:54:29;3.97;;;1.00;;
57047;SDS011;42934;54.294;18.598;2022-09-20T04:03:12;3.58;;;1.27;;
57047;SDS011;42934;54.294;18.598;2022-09-20T04:06:00;2.95;;;1.20;;
57047;SDS011;42934;54.294;18.598;2022-09-20T04:08:50;3.83;;;1.30;;
57047;SDS011;42934;54.294;18.598;2022-09-20T04:11:45;1.95;;;0.98;;
57047;SDS011;42934;54.294;18.598;2022-09-20T04:14:24;2.37;;;1.10;;
57047;SDS011;42934;54.294;18.598;2022-09-20T04:17:02;2.20;;;1.20;;
57047;SDS011;42934;54.294;18.598;2022-09-20T04:19:43;2.75;;;1.27;;
57047;SDS011;42934;54.294;18.598;2022-09-20T04:22:17;4.53;;;1.45;;
57047;SDS011;42934;54.294;18.598;2022-09-20T04:24:51;1.92;;;1.10;;
57047;SDS011;42934;54.294;18.598;2022-09-20T04:27:26;1.60;;;1.15;;
57047;SDS011;42934;54.294;18.598;2022-09-20T04:30:00;3.78;;;1.20;;
57047;SDS011;42934;54.294;18.598;2022-09-20T04:32:34;2.72;;;1.40;;
57047;SDS011;42934;54.294;18.598;2022-09-20T04:35:12;2.10;;;1.08;;
57047;SDS011;42934;54.294;18.598;2022-09-20T04:38:08;2.38;;;1.67;;
57047;SDS011;42934;54.294;18.598;2022-09-20T04:40:46;1.83;;;1.20;;
57047;SDS011;42934;54.294;18.598;2022-09-20T04:43:41;4.20;;;1.38;;
57047;SDS011;42934;54.294;18.598;2022-09-20T04:46:32;2.30;;;1.15;;
57047;SDS011;42934;54.294;18.598;2022-09-20T04:55:51;1.40;;;0.82;;
57047;SDS011;42934;54.294;18.598;2022-09-20T05:04:38;3.47;;;1.20;;
57047;SDS011;42934;54.294;18.598;2022-09-20T05:07:54;3.67;;;1.20;;
57047;SDS011;42934;54.294;18.598;2022-09-20T05:11:11;1.90;;;1.25;;
57047;SDS011;42934;54.294;18.598;2022-09-20T05:13:59;2.17;;;1.40;;
57047;SDS011;42934;54.294;18.598;2022-09-20T05:16:48;2.55;;;0.95;;
57047;SDS011;42934;54.294;18.598;2022-09-20T05:19:36;3.03;;;1.00;;
57047;SDS011;42934;54.294;18.598;2022-09-20T05:22:41;3.22;;;1.15;;
57047;SDS011;42934;54.294;18.598;2022-09-20T05:28:29;1.67;;;0.98;;
57047;SDS011;42934;54.294;18.598;2022-09-20T05:31:07;4.18;;;1.42;;
57047;SDS011;42934;54.294;18.598;2022-09-20T05:33:49;4.03;;;1.05;;
57047;SDS011;42934;54.294;18.598;2022-09-20T05:36:28;2.70;;;1.20;;
57047;SDS011;42934;54.294;18.598;2022-09-20T05:39:09;3.72;;;1.30;;
57047;SDS011;42934;54.294;18.598;2022-09-20T05:41:51;3.20;;;1.00;;
57047;SDS011;42934;54.294;18.598;2022-09-20T05:44:26;5.82;;;1.23;;
57047;SDS011;42934;54.294;18.598;2022-09-20T05:47:08;3.30;;;1.27;;
57047;SDS011;42934;54.294;18.598;2022-09-20T05:49:49;2.80;;;1.20;;
57047;SDS011;42934;54.294;18.598;2022-09-20T05:52:30;5.43;;;1.67;;
57047;SDS011;42934;54.294;18.598;2022-09-20T05:55:16;8.00;;;1.65;;
57047;SDS011;42934;54.294;18.598;2022-09-20T05:58:19;2.42;;;1.40;;
57047;SDS011;42934;54.294;18.598;2022-09-20T06:01:06;3.65;;;1.38;;
57047;SDS011;42934;54.294;18.598;2022-09-20T06:03:43;5.43;;;1.63;;
57047;SDS011;42934;54.294;18.598;2022-09-20T06:06:24;3.47;;;1.30;;
57047;SDS011;42934;54.294;18.598;2022-09-20T06:09:04;1.98;;;1.15;;
57047;SDS011;42934;54.294;18.598;2022-09-20T06:11:57;2.20;;;1.20;;
57047;SDS011;42934;54.294;18.598;2022-09-20T06:14:45;4.10;;;1.23;;
57047;SDS011;42934;54.294;18.598;2022-09-20T06:17:24;2.63;;;1.40;;
57047;SDS011;42934;54.294;18.598;2022-09-20T06:19:59;3.63;;;1.80;;
57047;SDS011;42934;54.294;18.598;2022-09-20T06:22:46;5.78;;;2.55;;
57047;SDS011;42934;54.294;18.598;2022-09-20T06:25:22;5.05;;;1.85;;
57047;SDS011;42934;54.294;18.598;2022-09-20T06:27:57;6.57;;;2.40;;
57047;SDS011;42934;54.294;18.598;2022-09-20T06:30:33;8.88;;;3.92;;
57047;SDS011;42934;54.294;18.598;2022-09-20T06:33:12;10.35;;;3.92;;
57047;SDS011;42934;54.294;18.598;2022-09-20T06:35:44;9.75;;;3.78;;
57047;SDS011;42934;54.294;18.598;2022-09-20T06:38:22;9.30;;;3.35;;
57047;SDS011;42934;54.294;18.598;2022-09-20T06:41:22;8.07;;;3.05;;
57047;SDS011;42934;54.294;18.598;2022-09-20T06:43:55;11.48;;;3.65;;
57047;SDS011;42934;54.294;18.598;2022-09-20T06:46:25;9.65;;;4.28;;
57047;SDS011;42934;54.294;18.598;2022-09-20T06:48:55;14.38;;;4.28;;
57047;SDS011;42934;54.294;18.598;2022-09-20T06:51:25;11.70;;;4.60;;
57047;SDS011;42934;54.294;18.598;2022-09-20T06:53:58;7.85;;;5.25;;
57047;SDS011;42934;54.294;18.598;2022-09-20T06:56:28;6.47;;;3.85;;
57047;SDS011;42934;54.294;18.598;2022-09-20T06:58:59;6.80;;;2.90;;
57047;SDS011;42934;54.294;18.598;2022-09-20T07:01:29;5.85;;;2.10;;
57047;SDS011;42934;54.294;18.598;2022-09-20T07:03:58;5.50;;;1.73;;
57047;SDS011;42934;54.294;18.598;2022-09-20T07:06:28;2.03;;;1.50;;
57047;SDS011;42934;54.294;18.598;2022-09-20T07:08:59;4.22;;;1.40;;
57047;SDS011;42934;54.294;18.598;2022-09-20T07:11:28;3.70;;;2.20;;
57047;SDS011;42934;54.294;18.598;2022-09-20T07:14:01;4.78;;;1.42;;
57047;SDS011;42934;54.294;18.598;2022-09-20T07:16:30;1.98;;;1.23;;
57047;SDS011;42934;54.294;18.598;2022-09-20T07:19:02;2.28;;;1.20;;
57047;SDS011;42934;54.294;18.598;2022-09-20T07:21:32;2.55;;;1.20;;
57047;SDS011;42934;54.294;18.598;2022-09-20T07:24:03;2.80;;;1.33;;
57047;SDS011;42934;54.294;18.598;2022-09-20T07:26:32;4.82;;;1.13;;
57047;SDS011;42934;54.294;18.598;2022-09-20T07:29:02;3.58;;;1.50;;
57047;SDS011;42934;54.294;18.598;2022-09-20T07:31:33;5.50;;;1.33;;
57047;SDS011;42934;54.294;18.598;2022-09-20T07:34:02;3.70;;;1.02;;
57047;SDS011;42934;54.294;18.598;2022-09-20T07:36:32;3.90;;;1.40;;
57047;SDS011;42934;54.294;18.598;2022-09-20T07:39:02;1.57;;;0.90;;
57047;SDS011;42934;54.294;18.598;2022-09-20T07:41:32;3.45;;;1.33;;
57047;SDS011;42934;54.294;18.598;2022-09-20T07:44:01;2.80;;;1.00;;
57047;SDS011;42934;54.294;18.598;2022-09-20T07:46:46;6.05;;;1.02;;
57047;SDS011;42934;54.294;18.598;2022-09-20T07:49:15;1.55;;;0.73;;
57047;SDS011;42934;54.294;18.598;2022-09-20T07:51:45;2.42;;;0.73;;
57047;SDS011;42934;54.294;18.598;2022-09-20T07:54:15;4.10;;;0.88;;
57047;SDS011;42934;54.294;18.598;2022-09-20T07:56:45;1.75;;;0.68;;
57047;SDS011;42934;54.294;18.598;2022-09-20T07:59:15;2.10;;;0.63;;
57047;SDS011;42934;54.294;18.598;2022-09-20T08:01:44;2.57;;;0.53;;
57047;SDS011;42934;54.294;18.598;2022-09-20T08:04:14;1.30;;;0.65;;
57047;SDS011;42934;54.294;18.598;2022-09-20T08:06:44;2.50;;;0.45;;
57047;SDS011;42934;54.294;18.598;2022-09-20T08:09:14;0.93;;;0.52;;
57047;SDS011;42934;54.294;18.598;2022-09-20T08:11:45;1.15;;;0.57;;
57047;SDS011;42934;54.294;18.598;2022-09-20T08:14:16;3.72;;;0.90;;
57047;SDS011;42934;54.294;18.598;2022-09-20T08:16:47;2.15;;;0.77;;
57047;SDS011;42934;54.294;18.598;2022-09-20T08:19:18;1.67;;;0.70;;
57047;SDS011;42934;54.294;18.598;2022-09-20T08:21:49;1.80;;;0.75;;
57047;SDS011;42934;54.294;18.598;2022-09-20T08:24:20;2.40;;;0.80;;
57047;SDS011;42934;54.294;18.598;2022-09-20T08:26:52;3.30;;;0.77;;
57047;SDS011;42934;54.294;18.598;2022-09-20T08:29:21;1.65;;;0.52;;
57047;SDS011;42934;54.294;18.598;2022-09-20T08:31:50;2.80;;;0.98;;
57047;SDS011;42934;54.294;18.598;2022-09-20T08:34:24;1.60;;;0.70;;
57047;SDS011;42934;54.294;18.598;2022-09-20T08:36:53;1.17;;;0.70;;
57047;SDS011;42934;54.294;18.598;2022-09-20T08:39:24;0.63;;;0.47;;
57047;SDS011;42934;54.294;18.598;2022-09-20T08:42:16;2.25;;;0.80;;
57047;SDS011;42934;54.294;18.598;2022-09-20T08:44:53;1.87;;;0.70;;
57047;SDS011;42934;54.294;18.598;2022-09-20T08:47:26;4.45;;;0.80;;
57047;SDS011;42934;54.294;18.598;2022-09-20T08:49:58;1.15;;;0.60;;
57047;SDS011;42934;54.294;18.598;2022-09-20T08:52:44;1.67;;;0.60;;
57047;SDS011;42934;54.294;18.598;2022-09-20T08:55:17;3.85;;;0.70;;
57047;SDS011;42934;54.294;18.598;2022-09-20T08:57:50;1.10;;;0.55;;
57047;SDS011;42934;54.294;18.598;2022-09-20T09:00:22;1.65;;;0.70;;
57047;SDS011;42934;54.294;18.598;2022-09-20T09:02:55;1.88;;;0.90;;
57047;SDS011;42934;54.294;18.598;2022-09-20T09:05:31;1.65;;;0.70;;
57047;SDS011;42934;54.294;18.598;2022-09-20T09:08:04;1.10;;;0.57;;
57047;SDS011;42934;54.294;18.598;2022-09-20T09:10:37;1.55;;;0.50;;
57047;SDS011;42934;54.294;18.598;2022-09-20T09:13:12;2.30;;;0.68;;
57047;SDS011;42934;54.294;18.598;2022-09-20T09:15:48;1.65;;;0.50;;
57047;SDS011;42934;54.294;18.598;2022-09-20T09:18:26;2.20;;;0.60;;
57047;SDS011;42934;54.294;18.598;2022-09-20T09:21:02;1.23;;;0.40;;
57047;SDS011;42934;54.294;18.598;2022-09-20T09:23:37;2.58;;;0.50;;
57047;SDS011;42934;54.294;18.598;2022-09-20T09:26:16;2.85;;;0.95;;
57047;SDS011;42934;54.294;18.598;2022-09-20T09:31:36;2.15;;;0.63;;
57047;SDS011;42934;54.294;18.598;2022-09-20T09:34:15;1.20;;;0.35;;
57047;SDS011;42934;54.294;18.598;2022-09-20T09:36:51;2.15;;;0.70;;
57047;SDS011;42934;54.294;18.598;2022-09-20T09:39:23;1.38;;;0.60;;
57047;SDS011;42934;54.294;18.598;2022-09-20T09:41:55;3.95;;;0.50;;
57047;SDS011;42934;54.294;18.598;2022-09-20T09:44:28;1.27;;;0.35;;
57047;SDS011;42934;54.294;18.598;2022-09-20T09:47:00;1.90;;;0.38;;
57047;SDS011;42934;54.294;18.598;2022-09-20T09:49:30;0.73;;;0.43;;
57047;SDS011;42934;54.294;18.598;2022-09-20T09:52:03;1.60;;;0.50;;
57047;SDS011;42934;54.294;18.598;2022-09-20T09:54:39;0.75;;;0.43;;
57047;SDS011;42934;54.294;18.598;2022-09-20T09:57:22;0.95;;;0.38;;
57047;SDS011;42934;54.294;18.598;2022-09-20T10:00:04;2.40;;;0.52;;
57047;SDS011;42934;54.294;18.598;2022-09-20T10:03:04;0.98;;;0.50;;
57047;SDS011;42934;54.294;18.598;2022-09-20T10:05:55;0.47;;;0.40;;
57047;SDS011;42934;54.294;18.598;2022-09-20T10:08:37;1.55;;;0.40;;
57047;SDS011;42934;54.294;18.598;2022-09-20T10:11:14;0.40;;;0.40;;
57047;SDS011;42934;54.294;18.598;2022-09-20T10:13:59;0.40;;;0.30;;
57047;SDS011;42934;54.294;18.598;2022-09-20T10:19:14;1.23;;;0.80;;
57047;SDS011;42934;54.294;18.598;2022-09-20T10:21:52;4.60;;;1.23;;
57047;SDS011;42934;54.294;18.598;2022-09-20T10:24:30;3.10;;;1.25;;
57047;SDS011;42934;54.294;18.598;2022-09-20T10:27:11;2.63;;;1.10;;
57047;SDS011;42934;54.294;18.598;2022-09-20T10:29:55;2.05;;;0.90;;
57047;SDS011;42934;54.294;18.598;2022-09-20T10:32:37;2.33;;;0.70;;
57047;SDS011;42934;54.294;18.598;2022-09-20T10:35:25;2.33;;;0.70;;
57047;SDS011;42934;54.294;18.598;2022-09-20T10:38:11;2.47;;;0.90;;
57047;SDS011;42934;54.294;18.598;2022-09-20T10:40:52;5.47;;;1.30;;
57047;SDS011;42934;54.294;18.598;2022-09-20T10:44:01;1.45;;;0.40;;
57047;SDS011;42934;54.294;18.598;2022-09-20T10:46:50;1.92;;;0.50;;
57047;SDS011;42934;54.294;18.598;2022-09-20T10:49:31;1.27;;;0.60;;
57047;SDS011;42934;54.294;18.598;2022-09-20T10:52:09;2.10;;;0.43;;
57047;SDS011;42934;54.294;18.598;2022-09-20T10:54:54;1.48;;;0.47;;
57047;SDS011;42934;54.294;18.598;2022-09-20T11:00:40;2.25;;;0.80;;
57047;SDS011;42934;54.294;18.598;2022-09-20T11:03:21;2.20;;;0.70;;
57047;SDS011;42934;54.294;18.598;2022-09-20T11:06:04;1.00;;;0.50;;
57047;SDS011;42934;54.294;18.598;2022-09-20T11:08:43;1.02;;;0.50;;
57047;SDS011;42934;54.294;18.598;2022-09-20T11:11:18;1.58;;;0.50;;
57047;SDS011;42934;54.294;18.598;2022-09-20T11:13:53;2.30;;;0.70;;
57047;SDS011;42934;54.294;18.598;2022-09-20T11:16:31;1.00;;;0.50;;
57047;SDS011;42934;54.294;18.598;2022-09-20T11:19:08;1.83;;;0.90;;
57047;SDS011;42934;54.294;18.598;2022-09-20T11:21:46;3.22;;;0.60;;
57047;SDS011;42934;54.294;18.598;2022-09-20T11:24:23;0.80;;;0.60;;
57047;SDS011;42934;54.294;18.598;2022-09-20T11:26:57;1.95;;;0.80;;
57047;SDS011;42934;54.294;18.598;2022-09-20T11:29:33;1.02;;;0.50;;
57047;SDS011;42934;54.294;18.598;2022-09-20T11:32:09;0.93;;;0.40;;
57047;SDS011;42934;54.294;18.598;2022-09-20T11:34:47;1.60;;;0.57;;
57047;SDS011;42934;54.294;18.598;2022-09-20T11:37:20;1.05;;;0.70;;
57047;SDS011;42934;54.294;18.598;2022-09-20T11:39:55;2.03;;;0.63;;
57047;SDS011;42934;54.294;18.598;2022-09-20T11:42:29;5.60;;;1.10;;
57047;SDS011;42934;54.294;18.598;2022-09-20T11:45:02;4.68;;;0.85;;
57047;SDS011;42934;54.294;18.598;2022-09-20T11:47:32;3.20;;;1.38;;
57047;SDS011;42934;54.294;18.598;2022-09-20T11:58:05;3.03;;;1.42;;
57047;SDS011;42934;54.294;18.598;2022-09-20T12:00:39;2.38;;;0.85;;
57047;SDS011;42934;54.294;18.598;2022-09-20T12:07:33;1.55;;;1.00;;
57047;SDS011;42934;54.294;18.598;2022-09-20T12:10:06;4.20;;;2.60;;
57047;SDS011;42934;54.294;18.598;2022-09-20T12:12:54;2.95;;;1.48;;
57047;SDS011;42934;54.294;18.598;2022-09-20T12:15:25;1.08;;;0.98;;
57047;SDS011;42934;54.294;18.598;2022-09-20T12:18:02;2.70;;;1.00;;
57047;SDS011;42934;54.294;18.598;2022-09-20T12:21:00;3.97;;;1.20;;
57047;SDS011;42934;54.294;18.598;2022-09-20T12:26:46;4.78;;;1.10;;
57047;SDS011;42934;54.294;18.598;2022-09-20T12:32:46;1.83;;;1.00;;
57047;SDS011;42934;54.294;18.598;2022-09-20T12:38:32;1.70;;;1.05;;
57047;SDS011;42934;54.294;18.598;2022-09-20T12:41:07;1.50;;;0.90;;
57047;SDS011;42934;54.294;18.598;2022-09-20T12:43:55;1.73;;;1.08;;
57047;SDS011;42934;54.294;18.598;2022-09-20T12:46:34;1.65;;;1.17;;
57047;SDS011;42934;54.294;18.598;2022-09-20T12:49:09;1.83;;;1.13;;
57047;SDS011;42934;54.294;18.598;2022-09-20T12:52:25;2.40;;;1.20;;
57047;SDS011;42934;54.294;18.598;2022-09-20T12:55:30;5.43;;;1.20;;
57047;SDS011;42934;54.294;18.598;2022-09-20T12:58:20;3.17;;;1.70;;
57047;SDS011;42934;54.294;18.598;2022-09-20T13:07:25;3.05;;;1.45;;
57047;SDS011;42934;54.294;18.598;2022-09-20T13:10:23;3.40;;;1.50;;
57047;SDS011;42934;54.294;18.598;2022-09-20T13:12:59;3.22;;;1.60;;
57047;SDS011;42934;54.294;18.598;2022-09-20T13:15:38;4.85;;;1.70;;
57047;SDS011;42934;54.294;18.598;2022-09-20T13:18:14;2.45;;;1.58;;
57047;SDS011;42934;54.294;18.598;2022-09-20T13:20:46;2.97;;;1.60;;
57047;SDS011;42934;54.294;18.598;2022-09-20T13:23:18;4.82;;;1.60;;
57047;SDS011;42934;54.294;18.598;2022-09-20T13:25:52;3.35;;;1.42;;
57047;SDS011;42934;54.294;18.598;2022-09-20T13:28:32;2.78;;;1.50;;
57047;SDS011;42934;54.294;18.598;2022-09-20T13:31:21;4.30;;;1.70;;
57047;SDS011;42934;54.294;18.598;2022-09-20T13:36:41;4.15;;;1.77;;
57047;SDS011;42934;54.294;18.598;2022-09-20T13:39:19;4.95;;;1.75;;
57047;SDS011;42934;54.294;18.598;2022-09-20T13:42:02;3.85;;;1.70;;
57047;SDS011;42934;54.294;18.598;2022-09-20T13:44:37;4.53;;;1.83;;
57047;SDS011;42934;54.294;18.598;2022-09-20T13:47:23;1.73;;;1.40;;
57047;SDS011;42934;54.294;18.598;2022-09-20T13:49:58;1.30;;;1.10;;
57047;SDS011;42934;54.294;18.598;2022-09-20T13:52:30;3.10;;;1.20;;
57047;SDS011;42934;54.294;18.598;2022-09-20T13:55:18;1.20;;;1.00;;
57047;SDS011;42934;54.294;18.598;2022-09-20T13:57:56;2.05;;;1.00;;
57047;SDS011;42934;54.294;18.598;2022-09-20T14:00:29;1.23;;;0.93;;
57047;SDS011;42934;54.294;18.598;2022-09-20T14:03:00;1.23;;;0.90;;
57047;SDS011;42934;54.294;18.598;2022-09-20T14:05:29;3.53;;;0.98;;
57047;SDS011;42934;54.294;18.598;2022-09-20T14:08:01;3.58;;;1.60;;
57047;SDS011;42934;54.294;18.598;2022-09-20T14:10:33;1.77;;;0.80;;
57047;SDS011;42934;54.294;18.598;2022-09-20T14:13:07;2.42;;;1.15;;
57047;SDS011;42934;54.294;18.598;2022-09-20T14:15:42;3.25;;;1.50;;
57047;SDS011;42934;54.294;18.598;2022-09-20T14:18:13;2.20;;;1.17;;
57047;SDS011;42934;54.294;18.598;2022-09-20T14:20:45;1.63;;;1.00;;
57047;SDS011;42934;54.294;18.598;2022-09-20T14:23:20;4.88;;;1.00;;
57047;SDS011;42934;54.294;18.598;2022-09-20T14:26:06;2.78;;;1.20;;
57047;SDS011;42934;54.294;18.598;2022-09-20T14:28:48;2.55;;;1.05;;
57047;SDS011;42934;54.294;18.598;2022-09-20T14:31:20;1.77;;;0.90;;
57047;SDS011;42934;54.294;18.598;2022-09-20T14:33:52;4.95;;;1.20;;
57047;SDS011;42934;54.294;18.598;2022-09-20T14:36:25;2.78;;;0.98;;
57047;SDS011;42934;54.294;18.598;2022-09-20T14:38:57;1.40;;;1.00;;
57047;SDS011;42934;54.294;18.598;2022-09-20T14:41:31;1.10;;;0.90;;
57047;SDS011;42934;54.294;18.598;2022-09-20T14:44:04;1.48;;;1.10;;
57047;SDS011;42934;54.294;18.598;2022-09-20T14:46:51;4.32;;;1.30;;
57047;SDS011;42934;54.294;18.598;2022-09-20T14:49:28;3.72;;;1.55;;
57047;SDS011;42934;54.294;18.598;2022-09-20T14:55:21;1.88;;;1.33;;
57047;SDS011;42934;54.294;18.598;2022-09-20T14:58:06;4.53;;;1.40;;
57047;SDS011;42934;54.294;18.598;2022-09-20T15:00:46;4.72;;;2.20;;
57047;SDS011;42934;54.294;18.598;2022-09-20T15:03:21;4.30;;;1.95;;
57047;SDS011;42934;54.294;18.598;2022-09-20T15:05:54;5.85;;;2.55;;
57047;SDS011;42934;54.294;18.598;2022-09-20T15:08:23;5.65;;;2.20;;
57047;SDS011;42934;54.294;18.598;2022-09-20T15:10:54;4.82;;;2.72;;
57047;SDS011;42934;54.294;18.598;2022-09-20T15:13:25;5.97;;;2.78;;
57047;SDS011;42934;54.294;18.598;2022-09-20T15:15:55;3.22;;;1.80;;
57047;SDS011;42934;54.294;18.598;2022-09-20T15:18:26;6.25;;;2.33;;
57047;SDS011;42934;54.294;18.598;2022-09-20T15:21:00;5.07;;;2.15;;
57047;SDS011;42934;54.294;18.598;2022-09-20T15:23:29;4.70;;;3.50;;
57047;SDS011;42934;54.294;18.598;2022-09-20T15:26:00;6.88;;;3.60;;
57047;SDS011;42934;54.294;18.598;2022-09-20T15:28:30;5.53;;;2.42;;
57047;SDS011;42934;54.294;18.598;2022-09-20T15:31:00;5.35;;;2.88;;
57047;SDS011;42934;54.294;18.598;2022-09-20T15:33:29;6.40;;;3.60;;
57047;SDS011;42934;54.294;18.598;2022-09-20T15:36:00;5.82;;;2.80;;
57047;SDS011;42934;54.294;18.598;2022-09-20T15:38:29;3.33;;;2.67;;
57047;SDS011;42934;54.294;18.598;2022-09-20T15:41:00;3.80;;;1.97;;
57047;SDS011;42934;54.294;18.598;2022-09-20T15:43:31;4.15;;;1.80;;
57047;SDS011;42934;54.294;18.598;2022-09-20T15:46:03;3.20;;;1.80;;
57047;SDS011;42934;54.294;18.598;2022-09-20T15:48:45;3.75;;;2.10;;
57047;SDS011;42934;54.294;18.598;2022-09-20T15:51:15;3.15;;;1.60;;
57047;SDS011;42934;54.294;18.598;2022-09-20T15:53:44;4.68;;;1.75;;
57047;SDS011;42934;54.294;18.598;2022-09-20T15:56:17;4.35;;;1.80;;
57047;SDS011;42934;54.294;18.598;2022-09-20T15:58:48;3.63;;;1.80;;
57047;SDS011;42934;54.294;18.598;2022-09-20T16:01:25;3.78;;;1.88;;
57047;SDS011;42934;54.294;18.598;2022-09-20T16:03:55;4.25;;;1.48;;
57047;SDS011;42934;54.294;18.598;2022-09-20T16:06:25;3.47;;;1.50;;
57047;SDS011;42934;54.294;18.598;2022-09-20T16:08:55;3.33;;;1.50;;
57047;SDS011;42934;54.294;18.598;2022-09-20T16:11:25;6.20;;;1.80;;
57047;SDS011;42934;54.294;18.598;2022-09-20T16:13:55;4.75;;;1.77;;
57047;SDS011;42934;54.294;18.598;2022-09-20T16:16:26;6.97;;;2.00;;
57047;SDS011;42934;54.294;18.598;2022-09-20T16:19:02;4.35;;;2.10;;
57047;SDS011;42934;54.294;18.598;2022-09-20T16:21:47;5.15;;;1.88;;
57047;SDS011;42934;54.294;18.598;2022-09-20T16:24:24;6.03;;;1.95;;
57047;SDS011;42934;54.294;18.598;2022-09-20T16:26:57;4.22;;;2.00;;
57047;SDS011;42934;54.294;18.598;2022-09-20T16:29:28;5.85;;;2.05;;
57047;SDS011;42934;54.294;18.598;2022-09-20T16:31:58;6.88;;;1.92;;
57047;SDS011;42934;54.294;18.598;2022-09-20T16:34:30;3.33;;;1.83;;
57047;SDS011;42934;54.294;18.598;2022-09-20T16:37:03;7.22;;;2.50;;
57047;SDS011;42934;54.294;18.598;2022-09-20T16:39:34;5.93;;;2.40;;
57047;SDS011;42934;54.294;18.598;2022-09-20T16:42:09;2.95;;;2.33;;
57047;SDS011;42934;54.294;18.598;2022-09-20T16:44:40;3.88;;;2.35;;
57047;SDS011;42934;54.294;18.598;2022-09-20T16:47:11;3.63;;;2.30;;
57047;SDS011;42934;54.294;18.598;2022-09-20T16:49:44;5.95;;;2.35;;
57047;SDS011;42934;54.294;18.598;2022-09-20T16:52:13;4.50;;;2.78;;
57047;SDS011;42934;54.294;18.598;2022-09-20T16:54:42;4.75;;;3.00;;
57047;SDS011;42934;54.294;18.598;2022-09-20T16:57:14;6.05;;;3.85;;
57047;SDS011;42934;54.294;18.598;2022-09-20T16:59:44;6.40;;;3.60;;
57047;SDS011;42934;54.294;18.598;2022-09-20T17:02:13;11.05;;;5.00;;
57047;SDS011;42934;54.294;18.598;2022-09-20T17:04:43;9.27;;;5.10;;
57047;SDS011;42934;54.294;18.598;2022-09-20T17:07:12;7.53;;;4.63;;